Terminal Aerodrome Forecast
Issued by NWS Binghamton, NY

Home | Current Version | Previous Version | Text Only | Print | Product List | Glossary On
Versions: 1 2 3 4 5 6 7 8 9 10 11 12 13 14 15 16 17
000
FTUS41 KBGM 301120
TAFBGM
TAF
KBGM 301120Z 3012/3112 03004KT P6SM -SHRA SCT050 OVC100
     FM301400 03003KT P6SM BKN060 OVC100
      TEMPO 3019/3023 5SM -TSRA BKN040CB
     FM310200 11004KT P6SM -SHRA BKN060 OVC150
     FM310800 10009KT 2SM TSRA BR BKN025CB OVC040
      TEMPO 3109/3112 1SM +TSRA BR BKN018CB OVC030=

USA.gov is the U.S. government's official web portal to all federal, state and local government web resources and services.